createdAt,value
2018-02-02T00:01:15.253Z,29.90
2018-02-02T00:03:42.821Z,26.43
2018-02-02T00:06:10.427Z,28.03
2018-02-02T00:08:38.133Z,31.77
2018-02-02T00:11:05.728Z,30.33
2018-02-02T00:13:33.306Z,32.90
2018-02-02T00:16:00.900Z,35.20
2018-02-02T00:18:28.470Z,36.90
2018-02-02T00:20:56.021Z,34.90
2018-02-02T00:23:23.608Z,28.53
2018-02-02T00:25:51.153Z,30.77
2018-02-02T00:28:18.800Z,26.30
2018-02-02T00:30:46.396Z,32.37
2018-02-02T00:33:13.959Z,31.00
2018-02-02T00:35:41.518Z,28.60
2018-02-02T00:38:09.144Z,33.13
2018-02-02T00:40:36.697Z,30.73
2018-02-02T00:43:04.260Z,31.50
2018-02-02T00:45:32.011Z,30.87
2018-02-02T00:47:59.677Z,41.83
2018-02-02T00:50:32.737Z,30.70
2018-02-02T00:53:00.299Z,31.17
2018-02-02T00:55:27.859Z,31.00
2018-02-02T00:57:55.463Z,32.83
2018-02-02T01:00:23.108Z,32.57
2018-02-02T01:02:50.667Z,30.43
2018-02-02T01:05:18.256Z,30.50
2018-02-02T01:07:45.824Z,33.30
2018-02-02T01:10:13.570Z,32.53
2018-02-02T01:12:41.175Z,32.20
2018-02-02T01:15:08.890Z,33.07
2018-02-02T01:17:36.447Z,35.50
2018-02-02T01:20:04.123Z,31.67
2018-02-02T01:22:31.693Z,33.40
2018-02-02T01:24:59.268Z,33.70
2018-02-02T01:27:26.999Z,33.00
2018-02-02T01:29:54.561Z,34.87
2018-02-02T01:32:22.118Z,33.90
2018-02-02T01:34:49.713Z,34.27
2018-02-02T01:37:17.277Z,38.80
2018-02-02T01:39:44.876Z,37.97
2018-02-02T01:42:12.471Z,40.40
2018-02-02T01:44:42.049Z,42.33
2018-02-02T01:47:09.625Z,41.80
2018-02-02T01:49:37.390Z,42.83
2018-02-02T01:52:04.959Z,41.80
2018-02-02T01:54:32.522Z,38.17
2018-02-02T01:57:00.134Z,38.37
2018-02-02T01:59:27.716Z,35.67
2018-02-02T02:01:55.276Z,34.63
2018-02-02T02:04:22.878Z,34.67
2018-02-02T02:06:50.430Z,35.00
2018-02-02T02:09:18.106Z,33.77
2018-02-02T02:11:45.712Z,35.60
2018-02-02T02:14:13.265Z,37.90
2018-02-02T02:16:40.823Z,36.60
2018-02-02T02:19:08.440Z,34.60
2018-02-02T02:21:35.999Z,33.50
2018-02-02T02:24:03.549Z,36.37
2018-02-02T02:26:31.169Z,36.83
2018-02-02T02:28:58.719Z,36.83
2018-02-02T02:31:26.411Z,38.40
2018-02-02T02:33:54.012Z,36.17
2018-02-02T02:36:21.581Z,38.47
2018-02-02T02:38:49.150Z,38.47
2018-02-02T02:41:16.867Z,40.27
2018-02-02T02:43:44.434Z,36.90
2018-02-02T02:46:11.986Z,37.53
2018-02-02T02:48:39.626Z,38.60
2018-02-02T02:51:07.187Z,38.13
2018-02-02T02:53:34.765Z,36.70
2018-02-02T02:56:02.369Z,36.20
2018-02-02T02:58:30.090Z,37.67
2018-02-02T03:00:57.945Z,40.20
2018-02-02T03:03:25.564Z,35.53
2018-02-02T03:05:53.268Z,39.77
2018-02-02T03:08:20.840Z,39.10
2018-02-02T03:10:48.801Z,39.47
2018-02-02T03:13:16.473Z,36.50
2018-02-02T03:15:44.749Z,35.20
2018-02-02T03:18:12.369Z,37.70
2018-02-02T03:20:39.945Z,40.10
2018-02-02T03:23:07.520Z,37.90
2018-02-02T03:25:35.098Z,33.57
2018-02-02T03:28:02.654Z,35.30
2018-02-02T03:30:30.217Z,39.25
2018-02-02T03:32:57.833Z,38.20
2018-02-02T03:35:25.403Z,42.20
2018-02-02T03:37:52.975Z,37.73
2018-02-02T03:40:20.562Z,35.17
2018-02-02T03:42:48.127Z,37.27
2018-02-02T03:45:15.706Z,38.40
2018-02-02T03:47:43.346Z,36.90
2018-02-02T03:50:11.075Z,36.93
2018-02-02T03:52:38.673Z,38.83
2018-02-02T03:55:06.280Z,36.55
2018-02-02T03:57:33.883Z,32.20
2018-02-02T04:00:01.460Z,34.20
2018-02-02T04:02:29.094Z,35.33
2018-02-02T04:04:56.755Z,35.70
2018-02-02T04:07:24.362Z,34.80
2018-02-02T04:09:51.971Z,37.10
2018-02-02T04:12:19.518Z,36.37
2018-02-02T04:14:47.197Z,33.60
2018-02-02T04:17:14.785Z,33.30
2018-02-02T04:19:42.515Z,34.30
2018-02-02T04:22:10.174Z,33.17
2018-02-02T04:24:37.778Z,38.03
2018-02-02T04:27:05.343Z,33.07
2018-02-02T04:29:33.062Z,36.90
2018-02-02T04:32:00.830Z,31.40
2018-02-02T04:34:28.454Z,34.47
2018-02-02T04:36:56.075Z,69.73
2018-02-02T04:39:23.670Z,40.40
2018-02-02T04:41:51.240Z,33.53
2018-02-02T04:44:18.822Z,31.23
2018-02-02T04:46:46.441Z,28.90
2018-02-02T04:49:14.016Z,30.83
2018-02-02T04:51:41.576Z,31.60
2018-02-02T04:54:09.197Z,30.20
2018-02-02T04:56:36.761Z,35.40
2018-02-02T04:59:04.331Z,31.07
2018-02-02T05:01:31.963Z,29.80
2018-02-02T05:03:59.530Z,30.53
2018-02-02T05:06:27.109Z,31.67
2018-02-02T05:08:54.943Z,32.70
2018-02-02T05:11:22.611Z,32.40
2018-02-02T05:13:50.166Z,29.67
2018-02-02T05:16:17.763Z,30.07
2018-02-02T05:18:45.385Z,30.90
2018-02-02T05:21:13.684Z,31.57
2018-02-02T05:23:41.308Z,29.97
2018-02-02T05:26:08.994Z,33.13
2018-02-02T05:28:36.571Z,36.05
2018-02-02T05:31:04.319Z,30.17
2018-02-02T05:33:31.993Z,31.40
2018-02-02T05:35:59.570Z,38.03
2018-02-02T05:38:27.305Z,36.13
2018-02-02T05:40:54.874Z,37.37
2018-02-02T05:43:22.631Z,39.37
2018-02-02T05:45:50.260Z,42.57
2018-02-02T05:48:17.840Z,38.13
2018-02-02T05:50:45.425Z,34.40
2018-02-02T05:53:13.086Z,38.50
2018-02-02T05:55:40.753Z,33.87
2018-02-02T05:58:08.330Z,33.77
2018-02-02T06:00:36.073Z,34.67
2018-02-02T06:03:03.712Z,35.80
2018-02-02T06:05:31.296Z,35.87
2018-02-02T06:07:59.059Z,35.83
2018-02-02T06:10:26.627Z,34.00
2018-02-02T06:12:54.204Z,37.00
2018-02-02T06:15:21.905Z,34.37
2018-02-02T06:17:49.482Z,33.47
2018-02-02T06:20:17.054Z,35.07
2018-02-02T06:22:44.681Z,33.83
2018-02-02T06:25:12.608Z,32.80
2018-02-02T06:27:40.178Z,35.40
2018-02-02T06:30:07.792Z,36.13
2018-02-02T06:32:35.465Z,35.97
2018-02-02T06:35:03.045Z,35.83
2018-02-02T06:37:30.665Z,37.03
2018-02-02T06:39:58.576Z,34.70
2018-02-02T06:42:26.206Z,32.20
2018-02-02T06:44:53.830Z,34.10
2018-02-02T06:47:21.437Z,43.37
2018-02-02T06:49:49.001Z,34.47
2018-02-02T06:52:16.770Z,33.77
2018-02-02T06:54:44.344Z,39.57
2018-02-02T06:57:12.146Z,35.07
2018-02-02T06:59:39.742Z,40.73
2018-02-02T07:02:07.313Z,43.37
2018-02-02T07:04:34.886Z,39.30
2018-02-02T07:07:02.611Z,39.47
2018-02-02T07:09:30.603Z,42.47
2018-02-02T07:11:58.188Z,43.80
2018-02-02T07:14:26.030Z,43.20
2018-02-02T07:16:53.614Z,44.43
2018-02-02T07:19:21.191Z,46.60
2018-02-02T07:21:48.828Z,47.40
2018-02-02T07:24:16.400Z,49.80
2018-02-02T07:26:43.975Z,71.93
2018-02-02T07:29:11.698Z,73.77
2018-02-02T07:31:39.300Z,68.10
2018-02-02T07:34:06.877Z,61.00
2018-02-02T07:36:34.616Z,61.67
2018-02-02T07:39:02.257Z,58.93
2018-02-02T07:41:30.117Z,65.40
2018-02-02T07:43:57.744Z,55.40
2018-02-02T07:46:25.425Z,51.40
2018-02-02T07:48:53.111Z,50.70
2018-02-02T07:51:20.748Z,50.40
2018-02-02T07:53:48.423Z,54.70
2018-02-02T07:56:16.071Z,50.03
2018-02-02T07:58:43.759Z,46.23
2018-02-02T08:01:19.705Z,40.43
2018-02-02T08:03:47.442Z,40.23
2018-02-02T08:06:15.015Z,43.30
2018-02-02T08:08:42.798Z,43.17
2018-02-02T08:11:10.422Z,39.80
2018-02-02T08:13:38.004Z,42.43
2018-02-02T08:16:05.794Z,45.90
2018-02-02T08:18:33.443Z,38.30
2018-02-02T08:21:01.112Z,39.97
2018-02-02T08:23:28.692Z,48.80
2018-02-02T08:25:56.299Z,53.07
2018-02-02T08:28:23.876Z,76.27
2018-02-02T08:30:51.564Z,63.70
2018-02-02T08:33:19.187Z,56.20
2018-02-02T08:35:46.875Z,51.13
2018-02-02T08:38:14.447Z,52.00
2018-02-02T08:40:42.064Z,45.70
2018-02-02T08:43:09.658Z,44.73
2018-02-02T08:45:37.240Z,39.30
2018-02-02T08:48:04.867Z,35.30
2018-02-02T08:50:32.640Z,37.03
2018-02-02T08:53:00.311Z,40.77
2018-02-02T08:55:27.924Z,41.43
2018-02-02T08:57:55.500Z,39.27
2018-02-02T09:00:23.305Z,36.80
2018-02-02T09:02:50.915Z,37.33
2018-02-02T09:05:18.502Z,35.83
2018-02-02T09:07:46.104Z,38.80
2018-02-02T09:10:13.713Z,41.40
2018-02-02T09:12:41.290Z,37.27
2018-02-02T09:15:08.858Z,36.90
2018-02-02T09:17:36.724Z,38.33
2018-02-02T09:20:04.374Z,36.10
2018-02-02T09:22:31.988Z,37.00
2018-02-02T09:24:59.622Z,40.80
2018-02-02T09:27:26.644Z,40.27
2018-02-02T09:29:54.419Z,41.20
2018-02-02T09:32:22.130Z,42.90
2018-02-02T09:34:49.701Z,43.67
2018-02-02T09:37:17.272Z,40.87
2018-02-02T09:39:45.066Z,40.40
2018-02-02T09:42:12.652Z,37.30
2018-02-02T09:44:40.236Z,44.70
2018-02-02T09:47:07.850Z,41.97
2018-02-02T09:49:35.440Z,42.40
2018-02-02T09:52:03.028Z,41.27
2018-02-02T09:54:30.626Z,42.10
2018-02-02T09:56:58.189Z,39.23
2018-02-02T09:59:25.753Z,38.33
2018-02-02T10:01:53.343Z,33.77
2018-02-02T10:04:21.089Z,30.47
2018-02-02T10:06:48.735Z,23.27
2018-02-02T10:09:16.370Z,33.30
2018-02-02T10:11:43.993Z,13.03
2018-02-02T10:14:11.563Z,14.57
2018-02-02T10:16:39.168Z,26.17
2018-02-02T10:19:06.743Z,21.33
2018-02-02T10:21:34.305Z,22.73
2018-02-02T10:24:01.924Z,14.10
2018-02-02T10:26:29.639Z,15.83
2018-02-02T10:28:57.227Z,13.53
2018-02-02T10:31:24.945Z,11.10
2018-02-02T10:33:52.522Z,10.40
2018-02-02T10:36:20.273Z,9.93
2018-02-02T10:38:47.884Z,10.07
2018-02-02T10:41:15.457Z,8.03
2018-02-02T10:43:43.027Z,8.83
2018-02-02T10:46:10.622Z,9.73
2018-02-02T10:48:38.401Z,9.30
2018-02-02T10:51:05.964Z,9.10
2018-02-02T10:53:33.566Z,9.77
2018-02-02T10:56:01.133Z,8.67
2018-02-02T10:58:28.820Z,8.17
2018-02-02T11:01:01.833Z,8.60
2018-02-02T11:06:31.562Z,8.03
2018-02-02T11:08:59.324Z,9.70
2018-02-02T11:11:27.077Z,8.83
2018-02-02T11:13:54.714Z,8.70
2018-02-02T11:16:22.412Z,9.57
2018-02-02T11:18:49.980Z,8.90
2018-02-02T11:21:17.589Z,8.40
2018-02-02T11:23:45.154Z,8.47
2018-02-02T11:26:12.711Z,8.50
2018-02-02T11:28:40.519Z,10.67
2018-02-02T11:31:08.161Z,8.83
2018-02-02T11:33:35.715Z,11.37
2018-02-02T11:36:03.321Z,9.53
2018-02-02T11:38:30.902Z,8.97
2018-02-02T11:40:58.627Z,10.33
2018-02-02T11:43:26.232Z,9.43
2018-02-02T11:45:53.933Z,8.50
2018-02-02T11:48:21.508Z,10.00
2018-02-02T11:50:49.117Z,8.60
2018-02-02T11:53:16.694Z,10.23
2018-02-02T11:55:44.378Z,9.23
2018-02-02T11:58:11.972Z,12.00
2018-02-02T12:00:39.569Z,12.20
2018-02-02T12:03:07.170Z,9.67
2018-02-02T12:05:35.019Z,10.57
2018-02-02T12:08:02.581Z,8.13
2018-02-02T12:10:30.144Z,10.17
2018-02-02T12:12:57.730Z,8.23
2018-02-02T12:15:25.295Z,9.20
2018-02-02T12:17:52.875Z,9.40
2018-02-02T12:20:20.945Z,11.47
2018-02-02T12:23:01.252Z,10.80
2018-02-02T12:25:34.380Z,9.90
2018-02-02T12:28:07.582Z,12.00
2018-02-02T12:30:40.823Z,11.03
2018-02-02T12:36:11.478Z,9.43
2018-02-02T12:38:39.073Z,10.17
2018-02-02T12:41:06.690Z,11.20
2018-02-02T12:43:34.275Z,11.90
2018-02-02T12:46:02.116Z,10.30
2018-02-02T12:48:40.594Z,9.83
2018-02-02T12:51:23.267Z,10.60
2018-02-02T12:53:50.901Z,10.90
2018-02-02T12:56:18.607Z,12.70
2018-02-02T12:58:46.167Z,10.43
2018-02-02T13:01:13.759Z,12.00
2018-02-02T13:03:41.343Z,11.70
2018-02-02T13:06:08.908Z,11.63
2018-02-02T13:08:36.510Z,11.70
2018-02-02T13:11:04.073Z,12.73
2018-02-02T13:13:31.638Z,11.87
2018-02-02T13:15:59.249Z,10.77
2018-02-02T13:18:26.996Z,11.20
2018-02-02T13:20:54.827Z,13.37
2018-02-02T13:23:22.409Z,11.13
2018-02-02T13:25:50.125Z,11.43
2018-02-02T13:28:17.810Z,12.63
2018-02-02T13:30:45.399Z,12.40
2018-02-02T13:33:12.961Z,12.40
2018-02-02T13:35:40.528Z,12.87
2018-02-02T13:38:08.115Z,12.37
2018-02-02T13:40:35.896Z,11.20
2018-02-02T13:43:03.470Z,11.77
2018-02-02T13:45:31.064Z,12.50
2018-02-02T13:47:58.635Z,12.13
2018-02-02T13:50:26.214Z,11.50
2018-02-02T13:52:53.824Z,13.17
2018-02-02T13:55:21.401Z,13.00
2018-02-02T13:57:48.956Z,12.20
2018-02-02T14:00:16.557Z,12.20
2018-02-02T14:02:44.122Z,11.47
2018-02-02T14:05:11.685Z,12.70
2018-02-02T14:07:39.284Z,10.67
2018-02-02T14:10:06.856Z,11.87
2018-02-02T14:12:34.602Z,12.30
2018-02-02T14:15:02.244Z,11.73
2018-02-02T14:17:29.798Z,13.07
2018-02-02T14:19:58.277Z,14.50
2018-02-02T14:22:25.850Z,11.80
2018-02-02T14:24:53.429Z,13.73
2018-02-02T14:27:21.157Z,12.23
2018-02-02T14:29:48.767Z,13.97
2018-02-02T14:32:16.324Z,13.10
2018-02-02T14:34:43.939Z,14.77
2018-02-02T14:37:11.535Z,13.53
2018-02-02T14:39:39.101Z,13.20
2018-02-02T14:42:07.758Z,11.20
2018-02-02T14:44:35.441Z,10.90
2018-02-02T14:47:03.008Z,11.87
2018-02-02T14:49:30.758Z,13.33
2018-02-02T14:51:58.332Z,14.90
2018-02-02T14:54:25.909Z,15.90
2018-02-02T14:56:53.566Z,12.40
2018-02-02T14:59:21.185Z,15.50
2018-02-02T15:01:48.869Z,14.35
2018-02-02T15:04:16.464Z,14.60
2018-02-02T15:06:44.029Z,14.83
2018-02-02T15:09:11.650Z,17.37
2018-02-02T15:11:39.279Z,12.70
2018-02-02T15:14:06.841Z,16.37
2018-02-02T15:16:34.636Z,14.63
2018-02-02T15:21:53.292Z,16.27
2018-02-02T15:24:20.876Z,13.37
2018-02-02T15:26:48.454Z,15.33
2018-02-02T15:29:16.063Z,14.80
2018-02-02T15:31:43.622Z,14.30
2018-02-02T15:34:11.235Z,15.10
2018-02-02T15:36:38.835Z,11.90
2018-02-02T15:39:06.463Z,14.00
2018-02-02T15:41:34.043Z,14.83
2018-02-02T15:44:02.066Z,14.60
2018-02-02T15:46:29.775Z,14.07
2018-02-02T15:48:57.340Z,13.43
2018-02-02T15:51:24.954Z,11.30
2018-02-02T15:53:52.511Z,12.50
2018-02-02T15:56:20.068Z,13.23
2018-02-02T15:58:47.647Z,14.97
2018-02-02T16:01:15.212Z,12.80
2018-02-02T16:03:42.765Z,13.80
2018-02-02T16:06:10.349Z,12.67
2018-02-02T16:08:38.058Z,15.30
2018-02-02T16:11:05.620Z,13.97
2018-02-02T16:13:33.237Z,12.77
2018-02-02T16:16:00.794Z,13.55
2018-02-02T16:18:28.404Z,12.47
2018-02-02T16:20:55.993Z,13.27
2018-02-02T16:23:23.553Z,11.67
2018-02-02T16:25:51.115Z,13.07
2018-02-02T16:28:18.759Z,15.97
2018-02-02T16:30:46.420Z,14.02
2018-02-02T16:33:14.072Z,14.63
2018-02-02T16:35:41.706Z,15.10
2018-02-02T16:38:09.397Z,14.97
2018-02-02T16:40:37.074Z,13.80
2018-02-02T16:43:04.775Z,12.33
2018-02-02T16:45:32.439Z,14.70
2018-02-02T16:48:00.088Z,11.30
2018-02-02T16:50:27.799Z,15.20
2018-02-02T16:52:55.587Z,11.57
2018-02-02T16:55:23.216Z,17.03
2018-02-02T16:57:50.840Z,14.27
2018-02-02T17:00:18.407Z,13.95
2018-02-02T17:02:45.974Z,14.83
2018-02-02T17:05:13.595Z,14.43
2018-02-02T17:07:41.238Z,13.83
2018-02-02T17:10:08.859Z,15.90
2018-02-02T17:12:38.579Z,14.60
2018-02-02T17:15:06.137Z,15.00
2018-02-02T17:17:33.962Z,14.13
2018-02-02T17:20:01.578Z,14.17
2018-02-02T17:22:29.260Z,108.27
2018-02-02T17:24:56.980Z,21.60
2018-02-02T17:27:24.561Z,39.67
2018-02-02T17:29:52.264Z,38.33
2018-02-02T17:32:19.913Z,20.15
2018-02-02T17:34:47.931Z,15.10
2018-02-02T17:37:15.501Z,17.07
2018-02-02T17:39:43.076Z,14.40
2018-02-02T17:42:10.770Z,14.77
2018-02-02T17:44:38.408Z,15.40
2018-02-02T17:47:05.966Z,14.93
2018-02-02T17:49:33.524Z,14.30
2018-02-02T17:52:01.532Z,16.00
2018-02-02T17:54:29.080Z,15.10
2018-02-02T17:56:56.627Z,14.87
2018-02-02T17:59:24.283Z,15.87
2018-02-02T18:02:01.887Z,15.90
2018-02-02T18:04:29.536Z,18.77
2018-02-02T18:06:57.241Z,16.83
2018-02-02T18:09:24.814Z,14.70
2018-02-02T18:11:52.436Z,12.73
2018-02-02T18:14:20.045Z,16.27
2018-02-02T18:16:47.828Z,14.40
2018-02-02T18:19:15.593Z,25.63
2018-02-02T18:21:43.210Z,14.27
2018-02-02T18:24:10.768Z,14.50
2018-02-02T18:26:38.521Z,15.23
2018-02-02T18:29:06.076Z,23.80
2018-02-02T18:31:33.841Z,16.67
2018-02-02T18:34:01.500Z,17.57
2018-02-02T18:36:29.184Z,23.33
2018-02-02T18:38:56.831Z,16.30
2018-02-02T18:41:24.611Z,14.10
2018-02-02T18:43:52.347Z,15.93
2018-02-02T18:46:20.031Z,15.73
2018-02-02T18:48:47.647Z,19.00
2018-02-02T18:51:15.225Z,36.20
2018-02-02T18:53:42.998Z,27.77
2018-02-02T18:56:10.670Z,15.73
2018-02-02T18:58:38.249Z,15.27
2018-02-02T19:01:05.820Z,12.57
2018-02-02T19:03:35.250Z,16.87
2018-02-02T19:06:04.889Z,13.30
2018-02-02T19:08:34.216Z,14.20
2018-02-02T19:11:03.364Z,13.40
2018-02-02T19:13:31.154Z,13.50
2018-02-02T19:15:58.860Z,14.33
2018-02-02T19:18:26.501Z,14.40
2018-02-02T19:20:54.063Z,14.60
2018-02-02T19:23:21.626Z,13.50
2018-02-02T19:25:49.299Z,13.70
2018-02-02T19:28:16.940Z,13.70
2018-02-02T19:30:44.540Z,16.37
2018-02-02T19:33:12.154Z,16.17
2018-02-02T19:35:39.732Z,15.80
2018-02-02T19:38:07.391Z,14.60
2018-02-02T19:40:35.053Z,14.87
2018-02-02T19:43:02.710Z,16.70
2018-02-02T19:45:30.355Z,16.17
2018-02-02T19:47:58.027Z,21.03
2018-02-02T19:50:25.703Z,17.30
2018-02-02T19:52:53.448Z,20.70
2018-02-02T19:55:21.095Z,17.10
2018-02-02T19:58:03.592Z,15.37
2018-02-02T20:00:31.219Z,17.30
2018-02-02T20:02:58.776Z,16.70
2018-02-02T20:05:26.346Z,15.57
2018-02-02T20:07:53.950Z,36.63
2018-02-02T20:10:21.498Z,23.03
2018-02-02T20:12:49.207Z,17.20
2018-02-02T20:15:16.783Z,19.20
2018-02-02T20:17:44.339Z,24.57
2018-02-02T20:20:11.880Z,23.10
2018-02-02T20:22:39.474Z,19.73
2018-02-02T20:25:07.034Z,20.97
2018-02-02T20:27:34.599Z,21.83
2018-02-02T20:30:02.193Z,25.43
2018-02-02T20:32:29.766Z,27.87
2018-02-02T20:34:57.375Z,41.03
2018-02-02T20:37:25.202Z,85.43
2018-02-02T20:39:52.824Z,44.93
2018-02-02T20:42:20.386Z,30.30
2018-02-02T20:44:48.018Z,39.83
2018-02-02T20:47:15.660Z,34.10
2018-02-02T20:49:43.237Z,57.30
2018-02-02T20:52:10.861Z,40.93
2018-02-02T20:54:38.408Z,41.03
2018-02-02T20:57:05.971Z,36.03
2018-02-02T20:59:33.801Z,40.37
2018-02-02T21:02:01.633Z,38.20
2018-02-02T21:04:29.193Z,37.37
2018-02-02T21:06:57.264Z,76.40
2018-02-02T21:09:24.808Z,88.07
2018-02-02T21:11:52.445Z,113.20
2018-02-02T21:14:20.027Z,56.73
2018-02-02T21:16:47.587Z,88.87
2018-02-02T21:19:15.137Z,87.73
2018-02-02T21:21:42.786Z,54.83
2018-02-02T21:24:10.626Z,95.53
2018-02-02T21:26:38.297Z,108.67
2018-02-02T21:29:05.968Z,61.40
2018-02-02T21:31:33.536Z,88.57
2018-02-02T21:34:01.118Z,146.87
2018-02-02T21:36:28.740Z,72.43
2018-02-02T21:38:56.342Z,43.10
2018-02-02T21:41:23.931Z,32.30
2018-02-02T21:43:51.533Z,47.60
2018-02-02T21:46:19.140Z,27.43
2018-02-02T21:48:46.712Z,27.97
2018-02-02T21:51:14.314Z,21.60
2018-02-02T21:53:41.920Z,24.60
2018-02-02T21:56:09.530Z,25.40
2018-02-02T21:58:37.252Z,18.70
2018-02-02T22:01:04.831Z,14.50
2018-02-02T22:03:32.562Z,22.27
2018-02-02T22:06:00.210Z,22.00
2018-02-02T22:08:27.767Z,28.40
2018-02-02T22:10:55.414Z,225.63
2018-02-02T22:13:23.016Z,69.10
2018-02-02T22:15:50.580Z,64.90
2018-02-02T22:18:18.148Z,43.20
2018-02-02T22:20:45.748Z,32.93
2018-02-02T22:23:13.315Z,30.37
2018-02-02T22:25:40.904Z,62.30
2018-02-02T22:28:08.682Z,39.87
2018-02-02T22:30:36.260Z,39.27
2018-02-02T22:33:03.881Z,39.70
2018-02-02T22:35:31.488Z,39.40
2018-02-02T22:37:59.052Z,46.10
2018-02-02T22:40:26.737Z,109.13
2018-02-02T22:42:54.537Z,143.70
2018-02-02T22:45:22.744Z,68.20
2018-02-02T22:47:50.569Z,35.40
2018-02-02T22:50:18.186Z,91.20
2018-02-02T22:52:45.771Z,99.77
2018-02-02T22:55:13.481Z,101.87
2018-02-02T22:57:41.101Z,113.80
2018-02-02T23:00:08.780Z,102.53
2018-02-02T23:02:36.362Z,66.90
2018-02-02T23:05:03.946Z,65.77
2018-02-02T23:07:31.535Z,81.27
2018-02-02T23:09:59.237Z,90.30
2018-02-02T23:12:26.911Z,74.83
2018-02-02T23:14:54.656Z,101.57
2018-02-02T23:17:22.228Z,100.53
2018-02-02T23:19:49.964Z,93.77
2018-02-02T23:22:17.522Z,90.33
2018-02-02T23:24:45.074Z,89.00
2018-02-02T23:27:12.862Z,181.20
2018-02-02T23:29:40.406Z,87.83
2018-02-02T23:32:08.209Z,82.70
2018-02-02T23:34:35.809Z,95.83
2018-02-02T23:37:03.528Z,61.97
2018-02-02T23:39:31.107Z,62.47
2018-02-02T23:41:58.756Z,88.37
2018-02-02T23:44:26.310Z,72.70
2018-02-02T23:46:53.873Z,52.57
2018-02-02T23:49:21.455Z,60.77
2018-02-02T23:51:49.082Z,52.30
2018-02-02T23:54:16.990Z,43.80
2018-02-02T23:56:44.829Z,32.10
2018-02-02T23:59:12.391Z,25.73
